Miami, Florida
Current Conditions -  °F | °C
As of 4:53 PM on Monday 20 Oct 2014 (Local Time) from KMIA Reporting Station
Light Rain Light Rain  
Wind Chill: 78°   Ceiling: 6000
Heat Index: 80°   Visibility: 10mi
Dew Point: 72°   Wind: 9mph
Humidity: 81%   Direction: 190°S
Pressure: 29.95"   Gusts: NA
Location:  25.77°N, 80.19°W
Report Text: KMIA 202053Z 19008KT 10SM -RA SCT033CB OVC060 26/22 A2995 RMK AO2 RAB32 SLP141 CB SE-S AND NW MOV N P0000 60000 T02560222 56010
Loading
Personal Weather Stations






























Interactive Weather Map
Tropical Storm Tracking
New forecast layout! Learn more

10-Day Weather Forecast

Advertisements
Track Severe Weather on mobile